sensor_id;sensor_type;location;lat;lon;timestamp;P1;durP1;ratioP1;P2;durP2;ratioP2
46399;SDS011;32104;50.838;4.388;2023-02-08T00:00:23;15.73;;;6.65;;
46399;SDS011;32104;50.838;4.388;2023-02-08T00:02:52;18.23;;;7.88;;
46399;SDS011;32104;50.838;4.388;2023-02-08T00:05:20;18.05;;;7.57;;
46399;SDS011;32104;50.838;4.388;2023-02-08T00:07:50;19.10;;;7.40;;
46399;SDS011;32104;50.838;4.388;2023-02-08T00:10:16;18.67;;;7.75;;
46399;SDS011;32104;50.838;4.388;2023-02-08T00:15:22;19.10;;;7.10;;
46399;SDS011;32104;50.838;4.388;2023-02-08T00:17:48;21.10;;;7.82;;
46399;SDS011;32104;50.838;4.388;2023-02-08T00:20:22;22.63;;;8.38;;
46399;SDS011;32104;50.838;4.388;2023-02-08T00:22:51;25.13;;;8.90;;
46399;SDS011;32104;50.838;4.388;2023-02-08T00:25:28;19.25;;;7.35;;
46399;SDS011;32104;50.838;4.388;2023-02-08T00:27:58;25.20;;;8.48;;
46399;SDS011;32104;50.838;4.388;2023-02-08T00:30:27;17.02;;;7.97;;
46399;SDS011;32104;50.838;4.388;2023-02-08T00:35:20;21.25;;;7.45;;
46399;SDS011;32104;50.838;4.388;2023-02-08T00:37:48;20.17;;;7.97;;
46399;SDS011;32104;50.838;4.388;2023-02-08T00:40:24;21.15;;;8.38;;
46399;SDS011;32104;50.838;4.388;2023-02-08T00:42:56;18.67;;;6.85;;
46399;SDS011;32104;50.838;4.388;2023-02-08T00:45:23;16.77;;;7.35;;
46399;SDS011;32104;50.838;4.388;2023-02-08T00:50:56;14.32;;;6.68;;
46399;SDS011;32104;50.838;4.388;2023-02-08T00:53:26;21.30;;;7.85;;
46399;SDS011;32104;50.838;4.388;2023-02-08T00:55:52;14.80;;;6.85;;
46399;SDS011;32104;50.838;4.388;2023-02-08T00:58:19;19.23;;;7.15;;
46399;SDS011;32104;50.838;4.388;2023-02-08T01:00:48;18.58;;;7.35;;
46399;SDS011;32104;50.838;4.388;2023-02-08T01:03:23;17.10;;;6.68;;
46399;SDS011;32104;50.838;4.388;2023-02-08T01:05:59;20.58;;;6.68;;
46399;SDS011;32104;50.838;4.388;2023-02-08T01:08:25;14.02;;;6.35;;
46399;SDS011;32104;50.838;4.388;2023-02-08T01:10:51;19.48;;;7.45;;
46399;SDS011;32104;50.838;4.388;2023-02-08T01:13:19;19.08;;;7.28;;
46399;SDS011;32104;50.838;4.388;2023-02-08T01:18:17;16.58;;;7.65;;
46399;SDS011;32104;50.838;4.388;2023-02-08T01:20:43;13.05;;;6.72;;
46399;SDS011;32104;50.838;4.388;2023-02-08T01:23:09;14.38;;;6.38;;
46399;SDS011;32104;50.838;4.388;2023-02-08T01:25:36;16.52;;;6.00;;
46399;SDS011;32104;50.838;4.388;2023-02-08T01:28:02;19.08;;;7.25;;
46399;SDS011;32104;50.838;4.388;2023-02-08T01:30:27;16.73;;;6.68;;
46399;SDS011;32104;50.838;4.388;2023-02-08T01:32:53;16.02;;;6.95;;
46399;SDS011;32104;50.838;4.388;2023-02-08T01:35:19;20.85;;;7.28;;
46399;SDS011;32104;50.838;4.388;2023-02-08T01:37:45;16.70;;;6.13;;
46399;SDS011;32104;50.838;4.388;2023-02-08T01:40:10;20.90;;;7.70;;
46399;SDS011;32104;50.838;4.388;2023-02-08T01:42:36;14.40;;;6.78;;
46399;SDS011;32104;50.838;4.388;2023-02-08T01:47:44;21.50;;;6.87;;
46399;SDS011;32104;50.838;4.388;2023-02-08T01:50:15;19.48;;;6.65;;
46399;SDS011;32104;50.838;4.388;2023-02-08T01:52:46;13.70;;;6.53;;
46399;SDS011;32104;50.838;4.388;2023-02-08T01:57:44;20.50;;;6.88;;
46399;SDS011;32104;50.838;4.388;2023-02-08T02:00:20;15.57;;;6.13;;
46399;SDS011;32104;50.838;4.388;2023-02-08T02:03:07;19.50;;;6.47;;
46399;SDS011;32104;50.838;4.388;2023-02-08T02:08:50;19.65;;;6.97;;
46399;SDS011;32104;50.838;4.388;2023-02-08T02:11:25;16.08;;;6.88;;
46399;SDS011;32104;50.838;4.388;2023-02-08T02:13:57;19.60;;;7.05;;
46399;SDS011;32104;50.838;4.388;2023-02-08T02:16:26;17.23;;;7.07;;
46399;SDS011;32104;50.838;4.388;2023-02-08T02:19:03;20.98;;;7.20;;
46399;SDS011;32104;50.838;4.388;2023-02-08T02:21:48;13.07;;;5.90;;
46399;SDS011;32104;50.838;4.388;2023-02-08T02:35:59;16.42;;;6.18;;
46399;SDS011;32104;50.838;4.388;2023-02-08T02:38:39;14.25;;;6.18;;
46399;SDS011;32104;50.838;4.388;2023-02-08T02:44:53;14.35;;;6.05;;
46399;SDS011;32104;50.838;4.388;2023-02-08T02:51:37;15.70;;;7.25;;
46399;SDS011;32104;50.838;4.388;2023-02-08T02:53:59;14.82;;;6.22;;
46399;SDS011;32104;50.838;4.388;2023-02-08T02:56:42;14.45;;;6.43;;
46399;SDS011;32104;50.838;4.388;2023-02-08T02:59:12;16.17;;;6.75;;
46399;SDS011;32104;50.838;4.388;2023-02-08T03:01:41;17.33;;;6.40;;
46399;SDS011;32104;50.838;4.388;2023-02-08T03:04:12;19.38;;;8.05;;
46399;SDS011;32104;50.838;4.388;2023-02-08T03:21:27;16.55;;;6.78;;
46399;SDS011;32104;50.838;4.388;2023-02-08T03:24:32;17.23;;;6.80;;
46399;SDS011;32104;50.838;4.388;2023-02-08T03:30:29;18.73;;;6.13;;
46399;SDS011;32104;50.838;4.388;2023-02-08T03:36:09;18.45;;;6.68;;
46399;SDS011;32104;50.838;4.388;2023-02-08T03:38:40;19.98;;;7.60;;
46399;SDS011;32104;50.838;4.388;2023-02-08T03:41:18;22.80;;;7.75;;
46399;SDS011;32104;50.838;4.388;2023-02-08T03:43:53;14.20;;;6.07;;
46399;SDS011;32104;50.838;4.388;2023-02-08T03:46:27;18.65;;;7.05;;
46399;SDS011;32104;50.838;4.388;2023-02-08T03:49:07;17.10;;;7.10;;
46399;SDS011;32104;50.838;4.388;2023-02-08T03:51:46;17.17;;;6.88;;
46399;SDS011;32104;50.838;4.388;2023-02-08T03:54:16;19.75;;;5.95;;
46399;SDS011;32104;50.838;4.388;2023-02-08T03:59:42;17.15;;;7.50;;
46399;SDS011;32104;50.838;4.388;2023-02-08T04:02:17;24.23;;;7.10;;
46399;SDS011;32104;50.838;4.388;2023-02-08T04:04:48;19.58;;;7.30;;
46399;SDS011;32104;50.838;4.388;2023-02-08T04:07:17;16.30;;;6.60;;
46399;SDS011;32104;50.838;4.388;2023-02-08T04:09:45;21.73;;;7.07;;
46399;SDS011;32104;50.838;4.388;2023-02-08T04:12:12;17.13;;;6.50;;
46399;SDS011;32104;50.838;4.388;2023-02-08T04:14:37;14.90;;;5.82;;
46399;SDS011;32104;50.838;4.388;2023-02-08T04:17:03;17.40;;;6.72;;
46399;SDS011;32104;50.838;4.388;2023-02-08T04:19:32;15.70;;;6.28;;
46399;SDS011;32104;50.838;4.388;2023-02-08T04:22:01;11.55;;;5.97;;
46399;SDS011;32104;50.838;4.388;2023-02-08T04:24:27;19.92;;;6.85;;
46399;SDS011;32104;50.838;4.388;2023-02-08T04:27:10;17.65;;;6.68;;
46399;SDS011;32104;50.838;4.388;2023-02-08T04:29:39;15.77;;;6.85;;
46399;SDS011;32104;50.838;4.388;2023-02-08T04:32:05;18.13;;;6.78;;
46399;SDS011;32104;50.838;4.388;2023-02-08T04:34:38;14.77;;;6.50;;
46399;SDS011;32104;50.838;4.388;2023-02-08T04:37:07;19.13;;;6.45;;
46399;SDS011;32104;50.838;4.388;2023-02-08T04:39:32;19.90;;;7.05;;
46399;SDS011;32104;50.838;4.388;2023-02-08T04:41:59;14.82;;;5.97;;
46399;SDS011;32104;50.838;4.388;2023-02-08T04:44:25;13.05;;;6.40;;
46399;SDS011;32104;50.838;4.388;2023-02-08T04:46:58;15.35;;;5.90;;
46399;SDS011;32104;50.838;4.388;2023-02-08T04:49:30;22.60;;;6.38;;
46399;SDS011;32104;50.838;4.388;2023-02-08T04:51:59;18.80;;;5.72;;
46399;SDS011;32104;50.838;4.388;2023-02-08T04:54:29;15.23;;;5.65;;
46399;SDS011;32104;50.838;4.388;2023-02-08T04:56:57;15.90;;;6.68;;
46399;SDS011;32104;50.838;4.388;2023-02-08T04:59:27;11.90;;;5.78;;
46399;SDS011;32104;50.838;4.388;2023-02-08T05:01:54;14.38;;;5.50;;
46399;SDS011;32104;50.838;4.388;2023-02-08T05:04:20;15.55;;;6.18;;
46399;SDS011;32104;50.838;4.388;2023-02-08T05:06:50;17.60;;;6.13;;
46399;SDS011;32104;50.838;4.388;2023-02-08T05:09:16;12.82;;;6.28;;
46399;SDS011;32104;50.838;4.388;2023-02-08T05:11:42;14.40;;;5.85;;
46399;SDS011;32104;50.838;4.388;2023-02-08T05:14:08;14.57;;;6.50;;
46399;SDS011;32104;50.838;4.388;2023-02-08T05:16:37;17.48;;;5.68;;
46399;SDS011;32104;50.838;4.388;2023-02-08T05:19:03;12.70;;;5.63;;
46399;SDS011;32104;50.838;4.388;2023-02-08T05:21:32;16.55;;;6.00;;
46399;SDS011;32104;50.838;4.388;2023-02-08T05:24:01;14.00;;;5.40;;
46399;SDS011;32104;50.838;4.388;2023-02-08T05:26:29;15.35;;;6.00;;
46399;SDS011;32104;50.838;4.388;2023-02-08T05:28:56;17.60;;;6.75;;
46399;SDS011;32104;50.838;4.388;2023-02-08T05:31:23;13.68;;;5.95;;
46399;SDS011;32104;50.838;4.388;2023-02-08T05:33:56;14.90;;;6.40;;
46399;SDS011;32104;50.838;4.388;2023-02-08T05:36:22;18.45;;;5.80;;
46399;SDS011;32104;50.838;4.388;2023-02-08T05:38:48;15.02;;;5.88;;
46399;SDS011;32104;50.838;4.388;2023-02-08T05:41:15;15.48;;;6.05;;
46399;SDS011;32104;50.838;4.388;2023-02-08T05:43:41;13.80;;;6.22;;
46399;SDS011;32104;50.838;4.388;2023-02-08T05:46:07;13.52;;;5.30;;
46399;SDS011;32104;50.838;4.388;2023-02-08T05:48:33;13.27;;;5.35;;
46399;SDS011;32104;50.838;4.388;2023-02-08T05:51:00;15.38;;;5.55;;
46399;SDS011;32104;50.838;4.388;2023-02-08T05:53:27;14.93;;;6.88;;
46399;SDS011;32104;50.838;4.388;2023-02-08T05:55:56;18.95;;;5.75;;
46399;SDS011;32104;50.838;4.388;2023-02-08T05:58:23;16.60;;;6.25;;
46399;SDS011;32104;50.838;4.388;2023-02-08T06:00:52;12.77;;;5.07;;
46399;SDS011;32104;50.838;4.388;2023-02-08T06:03:18;16.80;;;6.20;;
46399;SDS011;32104;50.838;4.388;2023-02-08T06:05:44;15.70;;;5.90;;
46399;SDS011;32104;50.838;4.388;2023-02-08T06:08:12;14.40;;;5.50;;
46399;SDS011;32104;50.838;4.388;2023-02-08T06:10:40;19.13;;;6.07;;
46399;SDS011;32104;50.838;4.388;2023-02-08T06:13:10;17.70;;;5.85;;
46399;SDS011;32104;50.838;4.388;2023-02-08T06:15:44;17.40;;;6.30;;
46399;SDS011;32104;50.838;4.388;2023-02-08T06:18:17;15.90;;;4.68;;
46399;SDS011;32104;50.838;4.388;2023-02-08T06:20:53;16.95;;;5.63;;
46399;SDS011;32104;50.838;4.388;2023-02-08T06:23:20;10.13;;;4.97;;
46399;SDS011;32104;50.838;4.388;2023-02-08T06:25:55;15.32;;;5.65;;
46399;SDS011;32104;50.838;4.388;2023-02-08T06:28:22;15.55;;;6.13;;
46399;SDS011;32104;50.838;4.388;2023-02-08T06:30:49;14.60;;;5.97;;
46399;SDS011;32104;50.838;4.388;2023-02-08T06:33:15;14.48;;;5.80;;
46399;SDS011;32104;50.838;4.388;2023-02-08T06:35:49;15.23;;;5.88;;
46399;SDS011;32104;50.838;4.388;2023-02-08T06:38:22;15.10;;;6.30;;
46399;SDS011;32104;50.838;4.388;2023-02-08T06:40:55;20.00;;;6.10;;
46399;SDS011;32104;50.838;4.388;2023-02-08T06:43:20;14.23;;;6.10;;
46399;SDS011;32104;50.838;4.388;2023-02-08T06:45:50;19.15;;;6.38;;
46399;SDS011;32104;50.838;4.388;2023-02-08T06:48:16;15.82;;;6.07;;
46399;SDS011;32104;50.838;4.388;2023-02-08T06:50:46;18.80;;;7.20;;
46399;SDS011;32104;50.838;4.388;2023-02-08T06:53:14;15.68;;;5.95;;
46399;SDS011;32104;50.838;4.388;2023-02-08T06:55:51;19.85;;;6.80;;
46399;SDS011;32104;50.838;4.388;2023-02-08T06:58:20;18.48;;;6.20;;
46399;SDS011;32104;50.838;4.388;2023-02-08T07:00:46;20.33;;;7.38;;
46399;SDS011;32104;50.838;4.388;2023-02-08T07:03:13;16.10;;;6.68;;
46399;SDS011;32104;50.838;4.388;2023-02-08T07:05:43;18.60;;;6.85;;
46399;SDS011;32104;50.838;4.388;2023-02-08T07:08:20;19.50;;;7.38;;
46399;SDS011;32104;50.838;4.388;2023-02-08T07:10:48;22.67;;;7.45;;
46399;SDS011;32104;50.838;4.388;2023-02-08T07:13:14;16.63;;;6.72;;
46399;SDS011;32104;50.838;4.388;2023-02-08T07:15:58;16.05;;;7.60;;
46399;SDS011;32104;50.838;4.388;2023-02-08T07:26:11;17.42;;;6.88;;
46399;SDS011;32104;50.838;4.388;2023-02-08T07:28:43;22.13;;;7.45;;
46399;SDS011;32104;50.838;4.388;2023-02-08T07:31:11;16.50;;;6.70;;
46399;SDS011;32104;50.838;4.388;2023-02-08T07:33:43;17.50;;;6.07;;
46399;SDS011;32104;50.838;4.388;2023-02-08T07:36:12;13.38;;;5.57;;
46399;SDS011;32104;50.838;4.388;2023-02-08T07:38:41;17.45;;;7.15;;
46399;SDS011;32104;50.838;4.388;2023-02-08T07:41:08;12.48;;;5.70;;
46399;SDS011;32104;50.838;4.388;2023-02-08T07:43:38;14.18;;;6.00;;
46399;SDS011;32104;50.838;4.388;2023-02-08T07:48:40;14.20;;;7.05;;
46399;SDS011;32104;50.838;4.388;2023-02-08T07:51:30;15.13;;;5.13;;
46399;SDS011;32104;50.838;4.388;2023-02-08T07:54:04;14.27;;;5.88;;
46399;SDS011;32104;50.838;4.388;2023-02-08T07:56:33;11.88;;;5.55;;
46399;SDS011;32104;50.838;4.388;2023-02-08T07:59:20;15.40;;;5.72;;
46399;SDS011;32104;50.838;4.388;2023-02-08T08:01:49;12.10;;;5.13;;
46399;SDS011;32104;50.838;4.388;2023-02-08T08:04:35;10.60;;;4.78;;
46399;SDS011;32104;50.838;4.388;2023-02-08T08:09:34;10.57;;;4.22;;
46399;SDS011;32104;50.838;4.388;2023-02-08T08:12:48;10.35;;;4.53;;
46399;SDS011;32104;50.838;4.388;2023-02-08T08:15:17;14.07;;;5.22;;
46399;SDS011;32104;50.838;4.388;2023-02-08T08:17:46;10.80;;;4.60;;
46399;SDS011;32104;50.838;4.388;2023-02-08T08:20:12;22.55;;;5.68;;
46399;SDS011;32104;50.838;4.388;2023-02-08T08:22:47;18.08;;;6.53;;
46399;SDS011;32104;50.838;4.388;2023-02-08T08:25:35;12.23;;;5.30;;
46399;SDS011;32104;50.838;4.388;2023-02-08T08:28:04;18.02;;;5.35;;
46399;SDS011;32104;50.838;4.388;2023-02-08T08:30:36;12.45;;;5.90;;
46399;SDS011;32104;50.838;4.388;2023-02-08T08:33:02;19.08;;;5.45;;
46399;SDS011;32104;50.838;4.388;2023-02-08T08:35:28;15.50;;;5.20;;
46399;SDS011;32104;50.838;4.388;2023-02-08T08:38:00;12.48;;;4.60;;
46399;SDS011;32104;50.838;4.388;2023-02-08T08:40:42;14.77;;;5.35;;
46399;SDS011;32104;50.838;4.388;2023-02-08T08:43:08;14.90;;;5.15;;
46399;SDS011;32104;50.838;4.388;2023-02-08T08:45:40;14.20;;;4.82;;
46399;SDS011;32104;50.838;4.388;2023-02-08T08:48:06;13.73;;;5.15;;
46399;SDS011;32104;50.838;4.388;2023-02-08T08:50:37;13.77;;;4.30;;
46399;SDS011;32104;50.838;4.388;2023-02-08T08:53:03;17.90;;;4.78;;
46399;SDS011;32104;50.838;4.388;2023-02-08T08:55:34;12.15;;;4.72;;
46399;SDS011;32104;50.838;4.388;2023-02-08T08:58:05;11.10;;;3.97;;
46399;SDS011;32104;50.838;4.388;2023-02-08T09:00:40;9.40;;;3.83;;
46399;SDS011;32104;50.838;4.388;2023-02-08T09:03:12;13.02;;;4.30;;
46399;SDS011;32104;50.838;4.388;2023-02-08T09:05:38;8.30;;;4.03;;
46399;SDS011;32104;50.838;4.388;2023-02-08T09:08:13;8.57;;;3.75;;
46399;SDS011;32104;50.838;4.388;2023-02-08T09:10:39;11.27;;;3.85;;
46399;SDS011;32104;50.838;4.388;2023-02-08T09:15:45;10.93;;;3.92;;
46399;SDS011;32104;50.838;4.388;2023-02-08T09:20:40;8.20;;;4.05;;
46399;SDS011;32104;50.838;4.388;2023-02-08T09:25:55;13.52;;;4.50;;
46399;SDS011;32104;50.838;4.388;2023-02-08T09:28:21;9.55;;;4.10;;
46399;SDS011;32104;50.838;4.388;2023-02-08T09:30:47;12.18;;;3.67;;
46399;SDS011;32104;50.838;4.388;2023-02-08T09:33:13;12.50;;;4.00;;
46399;SDS011;32104;50.838;4.388;2023-02-08T09:35:41;8.55;;;3.80;;
46399;SDS011;32104;50.838;4.388;2023-02-08T09:38:07;10.23;;;4.00;;
46399;SDS011;32104;50.838;4.388;2023-02-08T09:40:40;10.32;;;3.85;;
46399;SDS011;32104;50.838;4.388;2023-02-08T09:43:20;9.13;;;3.50;;
46399;SDS011;32104;50.838;4.388;2023-02-08T09:45:53;8.25;;;4.13;;
46399;SDS011;32104;50.838;4.388;2023-02-08T09:48:32;13.48;;;3.17;;
46399;SDS011;32104;50.838;4.388;2023-02-08T09:51:04;14.88;;;3.63;;
46399;SDS011;32104;50.838;4.388;2023-02-08T09:53:55;7.85;;;3.33;;
46399;SDS011;32104;50.838;4.388;2023-02-08T09:56:39;7.72;;;3.17;;
46399;SDS011;32104;50.838;4.388;2023-02-08T10:02:17;11.40;;;3.63;;
46399;SDS011;32104;50.838;4.388;2023-02-08T10:07:45;8.38;;;2.97;;
46399;SDS011;32104;50.838;4.388;2023-02-08T10:10:32;9.98;;;3.50;;
46399;SDS011;32104;50.838;4.388;2023-02-08T10:13:17;11.10;;;3.65;;
46399;SDS011;32104;50.838;4.388;2023-02-08T10:15:54;6.55;;;2.67;;
46399;SDS011;32104;50.838;4.388;2023-02-08T10:18:39;6.00;;;2.72;;
46399;SDS011;32104;50.838;4.388;2023-02-08T10:21:38;8.68;;;2.40;;
46399;SDS011;32104;50.838;4.388;2023-02-08T10:24:55;5.68;;;2.67;;
46399;SDS011;32104;50.838;4.388;2023-02-08T10:30:31;9.27;;;2.13;;
46399;SDS011;32104;50.838;4.388;2023-02-08T10:33:02;9.88;;;2.50;;
46399;SDS011;32104;50.838;4.388;2023-02-08T10:35:55;5.13;;;2.08;;
46399;SDS011;32104;50.838;4.388;2023-02-08T10:38:23;6.32;;;2.08;;
46399;SDS011;32104;50.838;4.388;2023-02-08T10:41:01;5.18;;;2.22;;
46399;SDS011;32104;50.838;4.388;2023-02-08T10:52:29;5.32;;;2.03;;
46399;SDS011;32104;50.838;4.388;2023-02-08T10:54:56;4.38;;;1.90;;
46399;SDS011;32104;50.838;4.388;2023-02-08T10:57:26;6.07;;;2.15;;
46399;SDS011;32104;50.838;4.388;2023-02-08T11:02:56;6.43;;;1.70;;
46399;SDS011;32104;50.838;4.388;2023-02-08T11:05:31;4.55;;;1.30;;
46399;SDS011;32104;50.838;4.388;2023-02-08T11:08:18;3.50;;;1.10;;
46399;SDS011;32104;50.838;4.388;2023-02-08T11:13:45;3.17;;;1.00;;
46399;SDS011;32104;50.838;4.388;2023-02-08T11:16:31;2.28;;;1.27;;
46399;SDS011;32104;50.838;4.388;2023-02-08T11:18:59;5.40;;;1.20;;
46399;SDS011;32104;50.838;4.388;2023-02-08T11:21:34;4.65;;;1.05;;
46399;SDS011;32104;50.838;4.388;2023-02-08T11:24:24;3.25;;;1.10;;
46399;SDS011;32104;50.838;4.388;2023-02-08T11:27:01;4.22;;;1.10;;
46399;SDS011;32104;50.838;4.388;2023-02-08T11:29:40;2.22;;;0.82;;
46399;SDS011;32104;50.838;4.388;2023-02-08T11:32:18;3.47;;;1.00;;
46399;SDS011;32104;50.838;4.388;2023-02-08T11:34:58;2.10;;;0.90;;
46399;SDS011;32104;50.838;4.388;2023-02-08T11:37:37;2.88;;;1.10;;
46399;SDS011;32104;50.838;4.388;2023-02-08T11:40:14;1.17;;;0.85;;
46399;SDS011;32104;50.838;4.388;2023-02-08T11:42:49;5.38;;;0.93;;
46399;SDS011;32104;50.838;4.388;2023-02-08T11:45:26;2.25;;;1.00;;
46399;SDS011;32104;50.838;4.388;2023-02-08T11:47:57;2.03;;;0.90;;
46399;SDS011;32104;50.838;4.388;2023-02-08T11:50:29;4.68;;;1.02;;
46399;SDS011;32104;50.838;4.388;2023-02-08T11:53:03;1.65;;;0.70;;
46399;SDS011;32104;50.838;4.388;2023-02-08T11:56:33;1.77;;;0.98;;
46399;SDS011;32104;50.838;4.388;2023-02-08T11:58:59;2.05;;;1.00;;
46399;SDS011;32104;50.838;4.388;2023-02-08T12:01:46;1.98;;;0.75;;
46399;SDS011;32104;50.838;4.388;2023-02-08T12:04:13;3.08;;;0.93;;
46399;SDS011;32104;50.838;4.388;2023-02-08T12:06:54;2.92;;;0.85;;
46399;SDS011;32104;50.838;4.388;2023-02-08T12:13:10;1.80;;;0.80;;
46399;SDS011;32104;50.838;4.388;2023-02-08T12:16:23;1.00;;;0.70;;
46399;SDS011;32104;50.838;4.388;2023-02-08T12:22:28;1.25;;;0.70;;
46399;SDS011;32104;50.838;4.388;2023-02-08T12:30:53;2.42;;;0.90;;
46399;SDS011;32104;50.838;4.388;2023-02-08T12:33:44;1.70;;;0.90;;
46399;SDS011;32104;50.838;4.388;2023-02-08T12:39:46;6.47;;;1.00;;
46399;SDS011;32104;50.838;4.388;2023-02-08T12:53:59;3.95;;;1.10;;
46399;SDS011;32104;50.838;4.388;2023-02-08T12:56:29;4.10;;;1.10;;
46399;SDS011;32104;50.838;4.388;2023-02-08T12:59:03;3.88;;;1.00;;
46399;SDS011;32104;50.838;4.388;2023-02-08T13:01:54;2.50;;;1.20;;
46399;SDS011;32104;50.838;4.388;2023-02-08T13:05:15;3.80;;;1.30;;
46399;SDS011;32104;50.838;4.388;2023-02-08T13:07:44;5.22;;;1.38;;
46399;SDS011;32104;50.838;4.388;2023-02-08T13:13:10;2.13;;;1.10;;
46399;SDS011;32104;50.838;4.388;2023-02-08T13:15:47;2.22;;;0.93;;
46399;SDS011;32104;50.838;4.388;2023-02-08T13:18:24;4.93;;;1.10;;
46399;SDS011;32104;50.838;4.388;2023-02-08T13:21:02;2.60;;;1.20;;
46399;SDS011;32104;50.838;4.388;2023-02-08T13:23:36;5.60;;;1.00;;
46399;SDS011;32104;50.838;4.388;2023-02-08T13:26:10;3.60;;;1.60;;
46399;SDS011;32104;50.838;4.388;2023-02-08T13:28:37;2.72;;;1.25;;
46399;SDS011;32104;50.838;4.388;2023-02-08T13:31:15;3.10;;;1.73;;
46399;SDS011;32104;50.838;4.388;2023-02-08T13:33:58;3.83;;;1.40;;
46399;SDS011;32104;50.838;4.388;2023-02-08T13:36:27;5.47;;;1.20;;
46399;SDS011;32104;50.838;4.388;2023-02-08T13:38:57;4.15;;;1.30;;
46399;SDS011;32104;50.838;4.388;2023-02-08T13:41:32;4.22;;;1.33;;
46399;SDS011;32104;50.838;4.388;2023-02-08T13:44:17;4.65;;;1.60;;
46399;SDS011;32104;50.838;4.388;2023-02-08T13:46:52;3.92;;;1.60;;
46399;SDS011;32104;50.838;4.388;2023-02-08T13:52:44;2.60;;;1.40;;
46399;SDS011;32104;50.838;4.388;2023-02-08T13:57:58;5.53;;;1.30;;
46399;SDS011;32104;50.838;4.388;2023-02-08T14:03:21;2.17;;;1.10;;
46399;SDS011;32104;50.838;4.388;2023-02-08T14:05:54;2.50;;;1.10;;
46399;SDS011;32104;50.838;4.388;2023-02-08T14:16:48;4.57;;;1.10;;
46399;SDS011;32104;50.838;4.388;2023-02-08T14:19:57;6.47;;;1.52;;
46399;SDS011;32104;50.838;4.388;2023-02-08T14:22:50;1.98;;;1.10;;
46399;SDS011;32104;50.838;4.388;2023-02-08T14:28:56;2.92;;;1.10;;
46399;SDS011;32104;50.838;4.388;2023-02-08T14:32:04;2.50;;;1.25;;
46399;SDS011;32104;50.838;4.388;2023-02-08T14:34:34;8.05;;;1.40;;
46399;SDS011;32104;50.838;4.388;2023-02-08T14:53:25;2.60;;;1.23;;
46399;SDS011;32104;50.838;4.388;2023-02-08T14:59:11;5.78;;;1.45;;
46399;SDS011;32104;50.838;4.388;2023-02-08T15:04:41;5.85;;;1.80;;
46399;SDS011;32104;50.838;4.388;2023-02-08T15:07:30;5.75;;;1.95;;
46399;SDS011;32104;50.838;4.388;2023-02-08T15:10:25;5.68;;;2.30;;
46399;SDS011;32104;50.838;4.388;2023-02-08T15:13:05;5.53;;;1.88;;
46399;SDS011;32104;50.838;4.388;2023-02-08T15:15:49;4.32;;;1.60;;
46399;SDS011;32104;50.838;4.388;2023-02-08T15:18:28;4.20;;;1.48;;
46399;SDS011;32104;50.838;4.388;2023-02-08T15:21:03;8.85;;;1.73;;
46399;SDS011;32104;50.838;4.388;2023-02-08T15:23:40;6.15;;;1.95;;
46399;SDS011;32104;50.838;4.388;2023-02-08T15:26:21;4.05;;;1.73;;
46399;SDS011;32104;50.838;4.388;2023-02-08T15:29:00;8.77;;;2.05;;
46399;SDS011;32104;50.838;4.388;2023-02-08T15:31:29;5.15;;;1.98;;
46399;SDS011;32104;50.838;4.388;2023-02-08T15:34:08;4.50;;;1.80;;
46399;SDS011;32104;50.838;4.388;2023-02-08T15:36:38;5.18;;;1.83;;
46399;SDS011;32104;50.838;4.388;2023-02-08T15:39:18;5.95;;;2.00;;
46399;SDS011;32104;50.838;4.388;2023-02-08T15:42:24;7.35;;;2.22;;
46399;SDS011;32104;50.838;4.388;2023-02-08T15:44:55;4.47;;;1.58;;
46399;SDS011;32104;50.838;4.388;2023-02-08T15:47:29;5.97;;;1.60;;
46399;SDS011;32104;50.838;4.388;2023-02-08T15:50:02;6.70;;;1.80;;
46399;SDS011;32104;50.838;4.388;2023-02-08T15:52:33;5.80;;;1.63;;
46399;SDS011;32104;50.838;4.388;2023-02-08T15:55:01;6.93;;;2.42;;
46399;SDS011;32104;50.838;4.388;2023-02-08T15:58:18;3.85;;;1.70;;
46399;SDS011;32104;50.838;4.388;2023-02-08T16:00:36;7.90;;;1.73;;
46399;SDS011;32104;50.838;4.388;2023-02-08T16:03:19;5.72;;;1.63;;
46399;SDS011;32104;50.838;4.388;2023-02-08T16:05:56;5.38;;;1.50;;
46399;SDS011;32104;50.838;4.388;2023-02-08T16:11:36;3.53;;;1.70;;
46399;SDS011;32104;50.838;4.388;2023-02-08T16:14:12;5.30;;;2.17;;
46399;SDS011;32104;50.838;4.388;2023-02-08T16:16:41;7.10;;;1.60;;
46399;SDS011;32104;50.838;4.388;2023-02-08T16:28:31;4.32;;;1.30;;
46399;SDS011;32104;50.838;4.388;2023-02-08T16:31:04;5.97;;;1.63;;
46399;SDS011;32104;50.838;4.388;2023-02-08T16:33:36;3.63;;;1.40;;
46399;SDS011;32104;50.838;4.388;2023-02-08T16:36:03;4.63;;;1.80;;
46399;SDS011;32104;50.838;4.388;2023-02-08T16:42:03;4.38;;;1.55;;
46399;SDS011;32104;50.838;4.388;2023-02-08T16:44:37;5.95;;;1.88;;
46399;SDS011;32104;50.838;4.388;2023-02-08T16:50:27;6.70;;;1.88;;
46399;SDS011;32104;50.838;4.388;2023-02-08T16:53:10;4.90;;;1.70;;
46399;SDS011;32104;50.838;4.388;2023-02-08T16:55:38;3.90;;;1.52;;
46399;SDS011;32104;50.838;4.388;2023-02-08T17:01:29;2.60;;;1.17;;
46399;SDS011;32104;50.838;4.388;2023-02-08T17:04:05;6.90;;;1.52;;
46399;SDS011;32104;50.838;4.388;2023-02-08T17:06:52;8.77;;;2.10;;
46399;SDS011;32104;50.838;4.388;2023-02-08T17:09:26;6.00;;;1.55;;
46399;SDS011;32104;50.838;4.388;2023-02-08T17:11:59;4.60;;;1.60;;
46399;SDS011;32104;50.838;4.388;2023-02-08T17:14:28;3.72;;;1.40;;
46399;SDS011;32104;50.838;4.388;2023-02-08T17:17:00;8.02;;;2.33;;
46399;SDS011;32104;50.838;4.388;2023-02-08T17:19:29;3.10;;;1.30;;
46399;SDS011;32104;50.838;4.388;2023-02-08T17:21:55;5.45;;;1.80;;
46399;SDS011;32104;50.838;4.388;2023-02-08T17:24:34;5.22;;;1.92;;
46399;SDS011;32104;50.838;4.388;2023-02-08T17:27:11;7.35;;;2.03;;
46399;SDS011;32104;50.838;4.388;2023-02-08T17:29:50;5.18;;;1.90;;
46399;SDS011;32104;50.838;4.388;2023-02-08T17:32:22;6.38;;;2.08;;
46399;SDS011;32104;50.838;4.388;2023-02-08T17:34:56;7.65;;;2.03;;
46399;SDS011;32104;50.838;4.388;2023-02-08T17:44:10;8.80;;;2.70;;
46399;SDS011;32104;50.838;4.388;2023-02-08T17:46:39;5.95;;;2.45;;
46399;SDS011;32104;50.838;4.388;2023-02-08T17:54:45;7.97;;;2.47;;
46399;SDS011;32104;50.838;4.388;2023-02-08T17:57:15;7.50;;;2.55;;
46399;SDS011;32104;50.838;4.388;2023-02-08T18:06:19;7.35;;;2.58;;
46399;SDS011;32104;50.838;4.388;2023-02-08T18:09:18;7.97;;;3.03;;
46399;SDS011;32104;50.838;4.388;2023-02-08T18:14:37;6.40;;;2.88;;
46399;SDS011;32104;50.838;4.388;2023-02-08T18:20:29;6.18;;;2.25;;
46399;SDS011;32104;50.838;4.388;2023-02-08T18:24:11;10.50;;;2.88;;
46399;SDS011;32104;50.838;4.388;2023-02-08T18:26:55;12.60;;;3.03;;
46399;SDS011;32104;50.838;4.388;2023-02-08T18:29:27;6.97;;;2.60;;
46399;SDS011;32104;50.838;4.388;2023-02-08T18:34:49;14.52;;;3.28;;
46399;SDS011;32104;50.838;4.388;2023-02-08T18:37:26;9.30;;;3.47;;
46399;SDS011;32104;50.838;4.388;2023-02-08T18:39:58;10.27;;;2.85;;
46399;SDS011;32104;50.838;4.388;2023-02-08T18:42:28;14.18;;;4.75;;
46399;SDS011;32104;50.838;4.388;2023-02-08T18:44:58;13.82;;;3.85;;
46399;SDS011;32104;50.838;4.388;2023-02-08T18:47:26;11.05;;;4.22;;
46399;SDS011;32104;50.838;4.388;2023-02-08T18:50:32;9.48;;;4.07;;
46399;SDS011;32104;50.838;4.388;2023-02-08T18:53:20;11.45;;;3.75;;
46399;SDS011;32104;50.838;4.388;2023-02-08T18:55:55;15.27;;;4.65;;
46399;SDS011;32104;50.838;4.388;2023-02-08T18:58:32;14.15;;;4.65;;
46399;SDS011;32104;50.838;4.388;2023-02-08T19:01:12;19.83;;;5.10;;
46399;SDS011;32104;50.838;4.388;2023-02-08T19:03:41;16.75;;;4.53;;
46399;SDS011;32104;50.838;4.388;2023-02-08T19:06:20;19.95;;;5.05;;
46399;SDS011;32104;50.838;4.388;2023-02-08T19:08:54;18.58;;;5.20;;
46399;SDS011;32104;50.838;4.388;2023-02-08T19:14:12;11.73;;;4.38;;